Time;durP1;ratioP1;P1;durP2;ratioP2;P2;SDS_P1;SDS_P2;PMS_P1;PMS_P2;Temp;Humidity;BMP_temperature;BMP_pressure;BME280_temperature;BME280_humidity;BME280_pressure;Samples;Min_cycle;Max_cycle;Signal;HPM_P1;HPM_P2
2023/06/07 00:04:13;;;;;;;1.40;1.40;;;23.90;53.10;;;;;;222496;1268;23751;-52
2023/06/07 00:09:18;;;;;;;1.30;1.30;;;23.90;53.10;;;;;;222438;1268;22511;-53
2023/06/07 00:14:23;;;;;;;1.40;1.30;;;23.90;53.10;;;;;;222282;1269;24279;-53
2023/06/07 00:19:27;;;;;;;2.10;1.60;;;23.90;53.10;;;;;;222456;1269;22997;-52
2023/06/07 00:24:32;;;;;;;1.50;1.40;;;23.90;53.10;;;;;;222091;1269;22512;-53
2023/06/07 00:29:36;;;;;;;1.40;1.30;;;23.90;53.30;;;;;;222465;1269;22617;-55
2023/06/07 00:34:40;;;;;;;1.80;1.70;;;23.90;53.20;;;;;;222078;1269;22767;-56
2023/06/07 00:39:45;;;;;;;1.80;1.70;;;23.90;53.30;;;;;;222138;1269;22582;-52
2023/06/07 00:44:49;;;;;;;1.70;1.60;;;23.90;53.60;;;;;;222183;1269;22731;-54
2023/06/07 00:49:54;;;;;;;1.80;1.70;;;23.80;53.30;;;;;;222536;1265;22622;-53
2023/06/07 00:55:01;;;;;;;2.10;2.00;;;23.90;53.80;;;;;;222388;1269;25255;-53
2023/06/07 01:00:06;;;;;;;1.80;1.70;;;23.90;53.40;;;;;;222591;1266;24206;-51
2023/06/07 01:05:11;;;;;;;1.90;1.70;;;23.90;53.30;;;;;;222021;1269;24206;-54
2023/06/07 01:10:17;;;;;;;1.70;1.60;;;23.90;53.40;;;;;;222501;1269;23364;-52
2023/06/07 01:15:23;;;;;;;1.70;1.60;;;23.80;53.40;;;;;;222467;1269;25302;-54
2023/06/07 01:20:28;;;;;;;1.80;1.70;;;23.90;53.40;;;;;;222622;1269;22616;-52
2023/06/07 01:25:32;;;;;;;1.70;1.60;;;23.80;53.40;;;;;;222638;1263;22627;-52
2023/06/07 01:30:37;;;;;;;2.10;2.00;;;23.80;53.70;;;;;;222436;1268;22800;-52
2023/06/07 01:35:41;;;;;;;2.00;1.80;;;23.80;53.30;;;;;;222661;1268;25406;-51
2023/06/07 01:40:51;;;;;;;1.70;1.60;;;23.80;53.40;;;;;;222774;1268;24037;-54
2023/06/07 01:45:55;;;;;;;1.40;1.30;;;23.80;53.40;;;;;;222517;1268;24170;-52
2023/06/07 01:51:01;;;;;;;1.80;1.70;;;23.80;53.40;;;;;;222496;1267;22642;-51
2023/06/07 01:56:22;;;;;;;2.10;2.00;;;23.80;53.70;;;;;;222644;1268;22505;-52
2023/06/07 02:01:55;;;;;;;2.20;2.10;;;23.80;53.10;;;;;;222604;1268;22695;-54
2023/06/07 02:07:05;;;;;;;1.70;1.60;;;23.80;53.30;;;;;;222585;1268;22532;-54
2023/06/07 02:12:11;;;;;;;1.90;1.70;;;23.80;53.40;;;;;;222668;1265;204305;-52
2023/06/07 02:17:15;;;;;;;1.70;1.60;;;23.80;53.30;;;;;;222574;1268;22551;-55
2023/06/07 02:22:19;;;;;;;2.50;2.30;;;23.80;53.80;;;;;;222455;1268;22518;-54
2023/06/07 02:27:23;;;;;;;1.70;1.60;;;23.80;53.50;;;;;;222502;1268;22537;-54
2023/06/07 02:32:29;;;;;;;1.80;1.70;;;23.80;53.40;;;;;;222357;1268;24195;-52
2023/06/07 02:37:33;;;;;;;1.90;1.80;;;23.80;53.40;;;;;;222581;1268;22630;-52
2023/06/07 02:42:42;;;;;;;2.00;1.90;;;23.80;53.40;;;;;;222685;1267;24196;-54
2023/06/07 02:47:47;;;;;;;2.00;1.90;;;23.80;53.50;;;;;;222574;1268;25836;-57
2023/06/07 02:52:51;;;;;;;1.50;1.40;;;23.80;53.40;;;;;;222578;1268;24276;-53
2023/06/07 02:57:56;;;;;;;1.80;1.70;;;23.80;53.40;;;;;;222451;1268;25290;-53
2023/06/07 03:03:05;;;;;;;1.70;1.60;;;23.80;53.50;;;;;;222315;1268;23138;-56
2023/06/07 03:08:11;;;;;;;2.20;2.10;;;23.80;53.40;;;;;;222505;1268;22509;-52
2023/06/07 03:13:17;;;;;;;2.10;1.90;;;23.80;53.80;;;;;;222731;1268;25320;-55
2023/06/07 03:18:23;;;;;;;1.70;1.60;;;23.80;53.50;;;;;;222861;1265;22508;-53
2023/06/07 03:23:32;;;;;;;1.80;1.70;;;23.80;53.80;;;;;;222538;1266;22511;-53
2023/06/07 03:28:36;;;;;;;1.90;1.70;;;23.70;53.40;;;;;;222594;1268;22629;-52
2023/06/07 03:33:41;;;;;;;2.00;1.90;;;23.70;53.40;;;;;;222346;1268;24181;-55
2023/06/07 03:38:46;;;;;;;1.90;1.80;;;23.70;53.40;;;;;;222473;1268;23279;-53
2023/06/07 03:43:50;;;;;;;2.10;2.00;;;23.70;53.40;;;;;;222693;1268;22620;-58
2023/06/07 03:48:55;;;;;;;2.00;1.90;;;23.70;53.80;;;;;;222524;1268;22494;-53
2023/06/07 03:54:00;;;;;;;2.00;1.90;;;23.70;53.40;;;;;;222450;1268;22514;-51
2023/06/07 03:59:06;;;;;;;2.30;2.20;;;23.70;53.50;;;;;;222589;1268;22592;-52
2023/06/07 04:04:11;;;;;;;1.80;1.70;;;23.70;53.80;;;;;;222768;1265;22505;-56
2023/06/07 04:09:18;;;;;;;1.80;1.70;;;23.70;53.40;;;;;;222604;1268;24253;-53
2023/06/07 04:14:22;;;;;;;2.00;1.90;;;23.70;53.50;;;;;;222331;1268;22608;-56
2023/06/07 04:19:27;;;;;;;1.90;1.80;;;23.70;53.90;;;;;;222749;1268;25384;-55
2023/06/07 04:24:32;;;;;;;2.00;1.80;;;23.70;53.70;;;;;;222524;1268;22521;-51
2023/06/07 04:29:40;;;;;;;1.70;1.60;;;23.70;54.00;;;;;;222602;1268;22519;-51
2023/06/07 04:34:46;;;;;;;1.80;1.70;;;23.70;53.90;;;;;;222603;1265;26576;-53
2023/06/07 04:39:51;;;;;;;2.00;1.80;;;23.70;53.50;;;;;;222612;1258;25341;-54
2023/06/07 04:45:00;;;;;;;1.80;1.70;;;23.70;53.60;;;;;;222530;1266;22513;-56
2023/06/07 04:50:06;;;;;;;1.90;1.80;;;23.70;53.90;;;;;;222407;1268;22526;-50
2023/06/07 04:55:10;;;;;;;2.00;1.90;;;23.70;53.80;;;;;;222762;1268;24183;-53
2023/06/07 05:00:19;;;;;;;1.70;1.60;;;23.70;53.40;;;;;;222364;1268;26603;-54
2023/06/07 05:05:23;;;;;;;2.00;1.80;;;23.70;53.40;;;;;;222660;1266;22508;-54
2023/06/07 05:10:28;;;;;;;2.00;1.90;;;23.70;53.40;;;;;;222732;1268;22521;-54
2023/06/07 05:15:35;;;;;;;1.90;1.80;;;23.70;53.70;;;;;;222461;1268;24341;-55
2023/06/07 05:20:40;;;;;;;1.40;1.30;;;23.70;53.30;;;;;;222545;1268;23952;-52
2023/06/07 05:25:46;;;;;;;2.00;1.90;;;23.70;53.30;;;;;;222762;1268;24206;-51
2023/06/07 05:30:50;;;;;;;1.80;1.70;;;23.70;53.30;;;;;;222430;1268;22542;-52
2023/06/07 05:35:55;;;;;;;1.80;1.70;;;23.70;53.90;;;;;;222514;1269;24175;-52
2023/06/07 05:41:00;;;;;;;1.80;1.70;;;23.70;53.40;;;;;;222149;1269;23905;-56
2023/06/07 05:46:05;;;;;;;1.80;1.70;;;23.70;53.30;;;;;;222528;1269;25183;-54
2023/06/07 05:51:10;;;;;;;1.70;1.60;;;23.70;53.60;;;;;;222348;1269;24855;-54
2023/06/07 05:56:16;;;;;;;3.50;1.80;;;23.70;53.40;;;;;;221992;1269;24270;-53
2023/06/07 06:01:21;;;;;;;2.10;2.00;;;23.70;53.40;;;;;;221936;1253;22504;-56
2023/06/07 06:06:25;;;;;;;1.60;1.50;;;23.70;53.40;;;;;;222120;1269;22522;-54
2023/06/07 06:11:29;;;;;;;1.80;1.70;;;23.70;53.50;;;;;;222062;1270;22608;-52
2023/06/07 06:16:33;;;;;;;1.90;1.80;;;23.70;53.20;;;;;;222070;1270;26827;-51
2023/06/07 06:21:38;;;;;;;2.30;2.20;;;23.70;53.30;;;;;;222019;1269;22532;-52
2023/06/07 06:26:42;;;;;;;2.00;1.90;;;23.70;53.60;;;;;;222022;1270;25296;-55
2023/06/07 06:31:46;;;;;;;1.90;1.80;;;23.70;53.30;;;;;;222054;1269;22533;-53
2023/06/07 06:36:50;;;;;;;2.10;2.00;;;23.70;53.20;;;;;;222068;1253;25858;-54
2023/06/07 06:41:55;;;;;;;2.30;2.20;;;23.70;53.30;;;;;;222111;1256;22599;-51
2023/06/07 06:47:07;;;;;;;1.80;1.70;;;23.70;53.20;;;;;;222241;1269;22508;-51
2023/06/07 06:52:12;;;;;;;2.00;1.90;;;23.70;53.10;;;;;;222278;1269;25518;-52
2023/06/07 06:57:16;;;;;;;1.80;1.70;;;23.70;53.20;;;;;;222230;1269;22663;-51
2023/06/07 07:02:20;;;;;;;3.20;1.80;;;23.70;53.30;;;;;;222003;1269;22656;-54
2023/06/07 07:07:27;;;;;;;1.80;1.70;;;23.70;53.20;;;;;;222446;1264;24160;-56
2023/06/07 07:12:31;;;;;;;2.00;1.90;;;23.70;53.30;;;;;;222078;1269;24184;-53
2023/06/07 07:17:44;;;;;;;1.90;1.80;;;23.70;53.10;;;;;;222086;1269;23187;-55
2023/06/07 07:22:48;;;;;;;1.90;1.80;;;23.70;53.00;;;;;;222358;1267;22604;-52
2023/06/07 07:27:52;;;;;;;1.70;1.60;;;23.70;53.00;;;;;;222074;1269;25587;-53
2023/06/07 07:32:56;;;;;;;2.00;1.90;;;23.70;52.90;;;;;;222156;1270;25211;-55
2023/06/07 07:38:01;;;;;;;1.90;1.80;;;23.70;52.90;;;;;;222130;1269;22588;-52
2023/06/07 07:43:05;;;;;;;1.90;1.80;;;23.70;53.00;;;;;;222045;1270;22616;-52
2023/06/07 07:48:11;;;;;;;2.00;1.90;;;23.70;53.00;;;;;;221893;1270;23867;-53
2023/06/07 07:53:15;;;;;;;1.80;1.70;;;23.70;53.00;;;;;;221862;1270;22634;-53
2023/06/07 07:58:19;;;;;;;1.70;1.60;;;23.70;52.50;;;;;;221772;1270;23877;-52
2023/06/07 08:03:24;;;;;;;1.60;1.50;;;23.80;53.00;;;;;;221600;1270;22522;-52
2023/06/07 08:08:28;;;;;;;1.80;1.70;;;23.70;53.40;;;;;;221750;1270;22531;-56
2023/06/07 08:13:32;;;;;;;2.10;2.00;;;23.70;53.00;;;;;;222181;1270;22514;-55
2023/06/07 08:18:38;;;;;;;1.70;1.60;;;23.80;53.10;;;;;;222114;1251;24187;-50
2023/06/07 08:23:43;;;;;;;1.90;1.80;;;23.80;53.00;;;;;;222064;1267;25243;-53
2023/06/07 08:28:47;;;;;;;1.60;1.50;;;23.80;53.00;;;;;;222069;1270;22528;-54
2023/06/07 08:33:51;;;;;;;1.80;1.70;;;23.80;53.20;;;;;;222161;1264;23875;-53
2023/06/07 08:38:55;;;;;;;1.30;1.30;;;23.90;52.70;;;;;;222069;1269;24210;-56
2023/06/07 08:44:00;;;;;;;1.70;1.60;;;23.90;52.60;;;;;;222096;1269;22636;-52
2023/06/07 08:49:05;;;;;;;1.80;1.70;;;24.00;52.40;;;;;;222336;1269;23019;-53
2023/06/07 08:54:13;;;;;;;1.70;1.60;;;24.00;52.30;;;;;;222360;1263;24739;-52
2023/06/07 08:59:18;;;;;;;1.90;1.80;;;24.10;52.40;;;;;;222476;1268;22580;-53
2023/06/07 09:04:25;;;;;;;2.00;1.90;;;24.10;52.70;;;;;;222515;1268;22511;-54
2023/06/07 09:09:29;;;;;;;1.90;1.80;;;24.20;52.40;;;;;;222601;1268;25293;-56
2023/06/07 09:14:37;;;;;;;1.60;1.50;;;24.20;52.10;;;;;;222491;1268;22515;-53
2023/06/07 09:19:42;;;;;;;1.60;1.50;;;24.30;52.00;;;;;;222615;1268;22523;-56
2023/06/07 09:24:46;;;;;;;1.70;1.60;;;24.30;52.30;;;;;;222484;1268;25278;-53
2023/06/07 09:29:50;;;;;;;2.00;1.90;;;24.40;51.90;;;;;;222457;1263;22514;-56
2023/06/07 09:35:14;;;;;;;1.80;1.70;;;24.40;51.90;;;;;;222425;1269;22514;-54
2023/06/07 09:40:19;;;;;;;2.20;2.00;;;24.40;51.90;;;;;;222324;1269;22777;-53
2023/06/07 09:45:25;;;;;;;1.80;1.70;;;24.40;51.80;;;;;;222456;1267;22523;-53
2023/06/07 09:50:30;;;;;;;1.50;1.40;;;24.40;51.80;;;;;;222308;1269;24307;-57
2023/06/07 09:55:34;;;;;;;1.80;1.70;;;24.50;51.90;;;;;;222097;1269;24229;-52
2023/06/07 10:00:42;;;;;;;1.90;1.80;;;24.50;51.80;;;;;;222134;1269;24081;-54
2023/06/07 10:05:49;;;;;;;1.80;1.70;;;24.50;51.80;;;;;;222379;1269;22562;-54
2023/06/07 10:10:55;;;;;;;1.70;1.60;;;24.60;52.10;;;;;;222354;1269;24186;-52
2023/06/07 10:16:01;;;;;;;1.90;1.80;;;24.60;51.70;;;;;;222264;1269;22521;-54
2023/06/07 10:21:12;;;;;;;1.60;1.50;;;24.60;51.60;;;;;;222294;1269;26740;-52
2023/06/07 10:26:21;;;;;;;1.70;1.60;;;24.60;51.60;;;;;;222020;1269;25216;-55
2023/06/07 10:31:34;;;;;;;2.10;2.00;;;24.70;51.60;;;;;;222283;1266;22522;-52
2023/06/07 10:36:39;;;;;;;1.30;1.30;;;24.70;52.00;;;;;;222797;1264;22509;-54
2023/06/07 10:41:44;;;;;;;1.60;1.50;;;24.70;51.60;;;;;;222543;1268;22726;-53
2023/06/07 10:46:48;;;;;;;1.60;1.50;;;24.70;51.60;;;;;;222689;1268;22522;-54
2023/06/07 10:51:58;;;;;;;1.80;1.70;;;24.80;51.50;;;;;;222549;1268;22768;-57
2023/06/07 10:57:03;;;;;;;1.60;1.50;;;24.80;51.50;;;;;;222683;1268;24255;-53
2023/06/07 11:02:26;;;;;;;1.60;1.50;;;24.80;51.50;;;;;;222758;1268;24216;-54
2023/06/07 11:07:31;;;;;;;1.30;1.30;;;24.90;51.50;;;;;;222749;1265;22509;-53
2023/06/07 11:12:40;;;;;;;1.60;1.50;;;24.90;51.40;;;;;;222433;1268;22553;-54
2023/06/07 11:17:57;;;;;;;1.70;1.60;;;25.00;51.40;;;;;;222463;1268;24334;-53
2023/06/07 11:23:33;;;;;;;1.70;1.60;;;24.90;51.50;;;;;;222687;1268;22527;-54
2023/06/07 11:28:40;;;;;;;2.00;1.90;;;24.90;51.60;;;;;;222856;1268;22633;-52
2023/06/07 11:33:47;;;;;;;1.70;1.60;;;24.90;51.60;;;;;;222329;1264;23132;-53
2023/06/07 11:38:54;;;;;;;2.00;1.90;;;24.90;52.00;;;;;;222272;1269;25453;-54
2023/06/07 11:44:01;;;;;;;1.90;1.80;;;24.90;51.70;;;;;;222090;1267;24196;-51
2023/06/07 11:49:09;;;;;;;1.80;1.70;;;24.90;51.80;;;;;;222579;1267;24352;-55
2023/06/07 11:54:13;;;;;;;1.60;1.50;;;24.90;51.80;;;;;;222551;1262;22638;-54
2023/06/07 11:59:21;;;;;;;1.60;1.50;;;24.90;52.20;;;;;;222285;1268;22537;-54
2023/06/07 12:04:25;;;;;;;1.50;1.40;;;24.80;51.90;;;;;;222246;1246;25610;-57
2023/06/07 12:09:39;;;;;;;1.80;1.70;;;24.80;51.90;;;;;;222435;1269;25387;-54
2023/06/07 12:14:46;;;;;;;1.50;1.40;;;24.80;52.00;;;;;;222376;1265;22732;-55
2023/06/07 12:19:53;;;;;;;1.60;1.50;;;24.80;52.00;;;;;;222324;1269;24243;-56
2023/06/07 12:25:09;;;;;;;1.60;1.50;;;24.80;52.10;;;;;;222406;1269;22645;-49
2023/06/07 12:30:14;;;;;;;1.30;1.30;;;24.80;52.40;;;;;;222693;1269;24354;-53
2023/06/07 12:35:18;;;;;;;1.50;1.40;;;24.80;52.10;;;;;;222587;1269;22525;-54
2023/06/07 12:40:22;;;;;;;1.70;1.60;;;24.80;52.10;;;;;;222003;1269;22791;-54
2023/06/07 12:45:27;;;;;;;1.50;1.40;;;24.80;52.30;;;;;;222290;1268;22516;-55
2023/06/07 12:50:31;;;;;;;1.70;1.60;;;24.80;52.30;;;;;;222199;1266;25458;-53
2023/06/07 12:55:35;;;;;;;1.20;1.20;;;24.70;52.30;;;;;;222143;1269;22563;-54
2023/06/07 13:00:39;;;;;;;1.40;1.40;;;24.70;52.40;;;;;;222328;1267;22510;-52
2023/06/07 13:05:44;;;;;;;1.30;1.20;;;24.70;51.90;;;;;;222245;1268;25610;-54
2023/06/07 13:10:49;;;;;;;1.60;1.50;;;24.70;52.50;;;;;;222593;1268;22580;-53
2023/06/07 13:15:54;;;;;;;1.40;1.30;;;24.70;52.50;;;;;;222595;1266;25319;-53
2023/06/07 13:21:01;;;;;;;1.60;1.50;;;24.80;52.60;;;;;;222655;1268;22659;-54
2023/06/07 13:26:05;;;;;;;1.70;1.60;;;24.80;52.80;;;;;;222374;1268;22531;-54
2023/06/07 13:31:11;;;;;;;1.70;1.60;;;24.80;52.50;;;;;;222523;1268;22650;-56
2023/06/07 13:36:15;;;;;;;1.60;1.50;;;24.80;52.40;;;;;;222684;1268;22781;-57
2023/06/07 13:41:22;;;;;;;1.50;1.40;;;24.80;52.30;;;;;;222542;1268;22528;-54
2023/06/07 13:46:26;;;;;;;1.60;1.50;;;24.90;52.70;;;;;;222486;1268;23261;-54
2023/06/07 13:51:33;;;;;;;1.10;1.10;;;24.90;52.30;;;;;;222496;1260;22576;-54
2023/06/07 13:56:38;;;;;;;1.60;1.30;;;24.80;52.30;;;;;;222527;1268;25537;-51
2023/06/07 14:01:42;;;;;;;1.30;1.30;;;24.90;52.30;;;;;;222671;1268;24467;-52
2023/06/07 14:06:50;;;;;;;1.70;1.60;;;24.90;52.30;;;;;;222479;1268;22589;-55
2023/06/07 14:11:55;;;;;;;1.50;1.40;;;24.90;52.30;;;;;;222409;1263;238649;-55
2023/06/07 14:16:59;;;;;;;1.60;1.50;;;24.90;52.30;;;;;;222734;1262;22645;-54
2023/06/07 14:22:04;;;;;;;1.50;1.40;;;24.90;52.30;;;;;;222240;1268;22537;-51
2023/06/07 14:27:09;;;;;;;1.40;1.30;;;24.90;52.30;;;;;;222456;1268;25211;-54
2023/06/07 14:32:15;;;;;;;1.60;1.50;;;24.90;52.40;;;;;;222581;1268;24347;-53
2023/06/07 14:37:20;;;;;;;1.50;1.40;;;24.90;52.30;;;;;;222648;1249;22511;-53
2023/06/07 14:42:25;;;;;;;1.70;1.60;;;24.90;52.30;;;;;;222540;1262;22635;-54
2023/06/07 14:47:29;;;;;;;1.70;1.60;;;24.90;52.20;;;;;;222473;1268;22513;-55
2023/06/07 14:52:33;;;;;;;1.50;1.40;;;24.90;52.70;;;;;;222547;1256;22511;-58
2023/06/07 14:57:38;;;;;;;1.60;1.50;;;24.90;52.30;;;;;;222642;1268;23010;-57
2023/06/07 15:02:42;;;;;;;1.60;1.50;;;24.90;52.30;;;;;;222528;1268;25266;-53
2023/06/07 15:07:47;;;;;;;1.40;1.30;;;24.90;52.40;;;;;;222417;1268;22669;-55
2023/06/07 15:12:53;;;;;;;1.70;1.60;;;24.90;52.80;;;;;;222386;1268;24365;-53
2023/06/07 15:17:57;;;;;;;1.40;1.30;;;24.90;52.50;;;;;;222570;1267;22507;-54
2023/06/07 15:23:02;;;;;;;1.50;1.40;;;24.90;52.90;;;;;;222503;1268;24177;-54
2023/06/07 15:28:07;;;;;;;1.50;1.40;;;24.90;52.50;;;;;;222444;1268;25266;-54
2023/06/07 15:33:13;;;;;;;1.40;1.30;;;25.00;52.50;;;;;;222626;1265;22504;-52
2023/06/07 15:38:17;;;;;;;1.50;1.40;;;24.90;52.50;;;;;;222603;1268;22522;-53
2023/06/07 15:43:21;;;;;;;1.60;1.50;;;24.90;52.80;;;;;;222510;1268;24239;-53
2023/06/07 15:48:25;;;;;;;1.40;1.30;;;24.90;52.50;;;;;;222362;1268;22573;-56
2023/06/07 15:53:30;;;;;;;1.70;1.60;;;24.90;52.50;;;;;;222611;1268;22520;-54
2023/06/07 15:58:36;;;;;;;1.40;1.30;;;24.90;52.50;;;;;;222455;1268;23021;-52
2023/06/07 16:03:41;;;;;;;1.30;1.20;;;25.00;52.60;;;;;;222761;1268;25583;-55
2023/06/07 16:09:07;;;;;;;1.70;1.60;;;25.00;52.60;;;;;;222875;1268;22534;-55
2023/06/07 16:14:12;;;;;;;1.30;1.30;;;25.00;52.50;;;;;;222598;1265;23925;-54
2023/06/07 16:19:16;;;;;;;1.60;1.50;;;25.00;52.50;;;;;;222546;1265;22623;-55
2023/06/07 16:24:20;;;;;;;1.30;1.30;;;25.00;52.60;;;;;;222363;1268;24217;-55
2023/06/07 16:29:25;;;;;;;1.40;1.40;;;24.90;52.60;;;;;;222575;1268;25435;-56
2023/06/07 16:34:29;;;;;;;1.60;1.50;;;25.00;52.80;;;;;;222524;1268;22508;-56
2023/06/07 16:39:34;;;;;;;1.40;1.30;;;25.00;52.70;;;;;;222534;1268;22802;-51
2023/06/07 16:44:39;;;;;;;1.70;1.60;;;25.00;52.70;;;;;;222369;1268;22630;-58
2023/06/07 16:49:43;;;;;;;1.60;1.50;;;25.00;53.10;;;;;;222411;1268;24631;-55
2023/06/07 16:54:47;;;;;;;1.40;1.30;;;25.00;52.70;;;;;;222686;1268;22516;-54
2023/06/07 16:59:51;;;;;;;1.40;1.30;;;24.90;52.50;;;;;;222768;1267;24238;-52
2023/06/07 17:04:55;;;;;;;1.10;1.10;;;24.90;52.70;;;;;;222460;1264;22776;-52
2023/06/07 17:10:00;;;;;;;1.30;1.30;;;24.90;52.80;;;;;;222342;1268;22623;-53
2023/06/07 17:15:05;;;;;;;1.40;1.30;;;24.90;53.10;;;;;;222536;1268;22565;-57
2023/06/07 17:20:10;;;;;;;1.10;1.10;;;25.00;52.70;;;;;;222519;1268;23137;-54
2023/06/07 17:25:14;;;;;;;1.50;1.40;;;25.00;52.70;;;;;;222602;1263;25350;-55
2023/06/07 17:30:18;;;;;;;1.30;1.30;;;24.90;52.80;;;;;;222613;1264;22559;-53
2023/06/07 17:35:23;;;;;;;1.40;1.40;;;24.90;52.70;;;;;;222555;1268;25363;-53
2023/06/07 17:40:27;;;;;;;1.40;1.40;;;24.90;52.80;;;;;;222609;1265;25418;-51
2023/06/07 17:45:31;;;;;;;1.30;1.20;;;24.90;52.90;;;;;;222634;1268;24194;-53
2023/06/07 17:50:35;;;;;;;1.40;1.30;;;24.90;52.90;;;;;;222651;1268;22633;-53
2023/06/07 17:55:49;;;;;;;1.10;1.10;;;24.90;52.90;;;;;;222583;1267;22508;-53
2023/06/07 18:00:54;;;;;;;1.60;1.50;;;25.00;52.70;;;;;;222602;1264;22534;-47
2023/06/07 18:05:58;;;;;;;1.30;1.30;;;25.00;52.90;;;;;;222634;1266;22508;-55
2023/06/07 18:11:02;;;;;;;1.10;1.10;;;25.00;52.60;;;;;;222550;1268;22759;-56
2023/06/07 18:16:06;;;;;;;1.50;1.40;;;24.90;52.50;;;;;;222447;1268;25564;-54
2023/06/07 18:21:12;;;;;;;1.20;1.20;;;24.90;52.80;;;;;;222762;1265;22514;-52
2023/06/07 18:26:17;;;;;;;1.60;1.50;;;25.00;52.70;;;;;;222575;1268;25227;-55
2023/06/07 18:31:21;;;;;;;1.20;1.20;;;24.90;52.90;;;;;;222410;1268;22623;-52
2023/06/07 18:36:25;;;;;;;1.50;1.40;;;24.90;53.30;;;;;;222317;1267;25594;-57
2023/06/07 18:41:30;;;;;;;1.20;1.10;;;24.80;53.00;;;;;;222178;1269;22662;-56
2023/06/07 18:46:34;;;;;;;1.50;1.40;;;24.80;53.10;;;;;;222265;1269;22508;-55
2023/06/07 18:51:39;;;;;;;1.40;1.30;;;24.80;53.10;;;;;;222323;1268;22690;-54
2023/06/07 18:56:43;;;;;;;1.50;1.40;;;24.80;53.10;;;;;;222182;1269;22523;-54
2023/06/07 19:01:51;;;;;;;1.50;1.40;;;24.80;53.10;;;;;;222101;1269;23218;-53
2023/06/07 19:06:55;;;;;;;1.20;1.20;;;24.80;53.10;;;;;;222131;1269;24236;-57
2023/06/07 19:11:59;;;;;;;1.40;1.30;;;24.80;53.20;;;;;;221934;1263;24191;-56
2023/06/07 19:17:04;;;;;;;1.50;1.50;;;24.70;53.20;;;;;;222260;1269;22512;-55
2023/06/07 19:22:09;;;;;;;1.60;1.50;;;24.70;52.70;;;;;;222142;1268;22613;-54
2023/06/07 19:27:13;;;;;;;1.30;1.30;;;24.70;53.30;;;;;;222480;1258;23888;-54
2023/06/07 19:32:17;;;;;;;1.60;1.50;;;24.70;53.30;;;;;;222308;1268;22510;-58
2023/06/07 19:37:21;;;;;;;1.60;1.50;;;24.70;53.80;;;;;;222362;1268;22635;-54
2023/06/07 19:42:26;;;;;;;1.40;1.30;;;24.70;53.50;;;;;;222465;1268;22512;-52
2023/06/07 19:47:31;;;;;;;1.50;1.40;;;24.70;53.40;;;;;;222559;1268;22516;-53
2023/06/07 19:52:36;;;;;;;1.50;1.40;;;24.70;53.40;;;;;;222555;1268;25387;-51
2023/06/07 19:57:40;;;;;;;1.50;1.40;;;24.70;53.50;;;;;;221691;1270;23897;-54
2023/06/07 20:02:46;;;;;;;1.80;1.70;;;24.70;53.40;;;;;;221093;1274;23895;-55
2023/06/07 20:07:51;;;;;;;1.30;1.30;;;24.70;53.40;;;;;;221114;1257;25692;-54
2023/06/07 20:12:55;;;;;;;1.30;1.20;;;24.70;53.40;;;;;;221175;1274;24199;-56
2023/06/07 20:17:59;;;;;;;1.80;1.70;;;24.70;53.50;;;;;;221173;1269;22557;-55
2023/06/07 20:23:03;;;;;;;1.70;1.60;;;24.70;53.80;;;;;;220970;1274;22517;-54
2023/06/07 20:28:07;;;;;;;1.50;1.40;;;24.70;53.50;;;;;;221397;1272;22504;-54
2023/06/07 20:33:12;;;;;;;1.30;1.30;;;24.70;53.50;;;;;;222163;1267;25432;-53
2023/06/07 20:38:17;;;;;;;1.50;1.40;;;24.70;53.50;;;;;;222280;1268;22532;-52
2023/06/07 20:43:21;;;;;;;1.30;1.30;;;24.60;53.50;;;;;;222162;1269;22516;-53
2023/06/07 20:48:25;;;;;;;1.70;1.60;;;24.60;53.60;;;;;;222180;1269;22511;-53
2023/06/07 20:53:30;;;;;;;1.70;1.60;;;24.60;53.60;;;;;;222643;1267;22868;-52
2023/06/07 20:58:34;;;;;;;1.40;1.30;;;24.60;53.60;;;;;;222234;1269;22713;-52
2023/06/07 21:03:42;;;;;;;1.40;1.30;;;24.60;53.60;;;;;;222257;1269;25303;-51
2023/06/07 21:08:46;;;;;;;1.20;1.20;;;24.60;53.70;;;;;;222165;1269;22515;-50
2023/06/07 21:13:52;;;;;;;1.60;1.50;;;24.60;53.60;;;;;;222583;1265;22513;-52
2023/06/07 21:18:56;;;;;;;1.60;1.50;;;24.60;53.70;;;;;;222546;1269;25377;-55
2023/06/07 21:24:00;;;;;;;1.30;1.30;;;24.60;53.70;;;;;;222390;1266;22625;-52
2023/06/07 21:29:04;;;;;;;1.60;1.50;;;24.60;54.00;;;;;;222056;1269;22514;-52
2023/06/07 21:34:15;;;;;;;1.60;1.50;;;24.60;53.80;;;;;;222384;1269;24180;-56
2023/06/07 21:39:19;;;;;;;1.70;1.60;;;24.60;53.70;;;;;;222358;1269;24180;-52
2023/06/07 21:44:24;;;;;;;1.20;1.20;;;24.60;53.70;;;;;;222103;1260;24196;-54
2023/06/07 21:49:28;;;;;;;1.90;1.80;;;24.60;53.70;;;;;;222190;1269;23023;-55
2023/06/07 21:54:43;;;;;;;1.60;1.50;;;24.60;53.70;;;;;;222206;1269;25259;-53
2023/06/07 21:59:47;;;;;;;1.60;1.50;;;24.50;53.70;;;;;;222369;1269;22645;-53
2023/06/07 22:04:55;;;;;;;1.60;1.50;;;24.60;53.80;;;;;;222251;1268;22514;-54
2023/06/07 22:10:00;;;;;;;1.50;1.40;;;24.50;54.10;;;;;;222426;1268;25266;-54
2023/06/07 22:15:05;;;;;;;1.30;1.30;;;24.50;53.80;;;;;;222333;1267;22525;-52
2023/06/07 22:20:10;;;;;;;1.50;1.40;;;24.50;54.20;;;;;;222399;1269;24224;-53
2023/06/07 22:25:14;;;;;;;1.30;1.20;;;24.50;53.80;;;;;;222376;1269;24346;-52
2023/06/07 22:30:39;;;;;;;1.30;1.30;;;24.50;53.80;;;;;;222334;1264;22523;-50
2023/06/07 22:35:46;;;;;;;1.30;1.30;;;24.50;53.80;;;;;;222971;1266;22681;-54
2023/06/07 22:40:50;;;;;;;1.10;1.10;;;24.50;53.90;;;;;;222585;1268;24184;-53
2023/06/07 22:45:55;;;;;;;1.40;1.30;;;24.50;53.90;;;;;;222608;1262;22634;-53
2023/06/07 22:51:00;;;;;;;1.60;1.50;;;24.50;53.90;;;;;;222590;1268;24162;-54
2023/06/07 22:56:04;;;;;;;1.20;1.20;;;24.50;53.90;;;;;;222695;1268;24219;-52
2023/06/07 23:01:13;;;;;;;1.30;1.30;;;24.50;53.90;;;;;;222310;1268;22715;-53
2023/06/07 23:06:19;;;;;;;1.40;1.30;;;24.50;54.30;;;;;;222679;1267;23061;-52
2023/06/07 23:11:25;;;;;;;1.50;1.40;;;24.50;54.00;;;;;;222567;1266;22589;-54
2023/06/07 23:16:29;;;;;;;1.20;1.20;;;24.50;54.30;;;;;;222513;1268;22559;-51
2023/06/07 23:21:34;;;;;;;1.50;1.40;;;24.50;54.40;;;;;;222387;1268;24197;-52
2023/06/07 23:26:38;;;;;;;1.40;1.30;;;24.40;54.10;;;;;;222478;1247;24368;-57
2023/06/07 23:31:42;;;;;;;1.80;1.70;;;24.40;54.30;;;;;;222289;1268;22619;-52
2023/06/07 23:36:47;;;;;;;1.50;1.40;;;24.40;54.30;;;;;;222854;1268;22651;-51
2023/06/07 23:41:54;;;;;;;1.50;1.40;;;24.40;54.40;;;;;;222612;1268;24328;-53
2023/06/07 23:46:59;;;;;;;1.40;1.30;;;24.30;54.30;;;;;;222355;1268;26469;-51
2023/06/07 23:52:04;;;;;;;1.30;1.30;;;24.30;54.20;;;;;;222571;1268;22530;-55
2023/06/07 23:57:08;;;;;;;3.30;1.50;;;24.30;54.60;;;;;;222576;1263;22510;-53
